Time;durP1;ratioP1;P1;durP2;ratioP2;P2;SDS_P1;SDS_P2;PMS_P1;PMS_P2;Temp;Humidity;BMP_temperature;BMP_pressure;BME280_temperature;BME280_humidity;BME280_pressure;Samples;Min_cycle;Max_cycle;Signal;HPM_P1;HPM_P2
2022/01/10 00:01:06;;;;;;;1.95;1.15;;;10.10;90.40;;;;;;4953617;28;20515;-81
2022/01/10 00:03:32;;;;;;;1.65;1.10;;;10.20;90.40;;;;;;4954052;28;20027;-81
2022/01/10 00:05:57;;;;;;;3.85;1.17;;;10.10;90.40;;;;;;4950547;28;20038;-81
2022/01/10 00:08:23;;;;;;;2.28;1.10;;;10.20;90.40;;;;;;4954693;28;20041;-81
2022/01/10 00:10:51;;;;;;;2.20;1.20;;;10.20;90.30;;;;;;4954516;28;20504;-80
2022/01/10 00:13:16;;;;;;;1.85;0.90;;;10.20;90.30;;;;;;4953806;28;20054;-81
2022/01/10 00:15:44;;;;;;;1.83;1.23;;;10.20;90.30;;;;;;4954691;28;20839;-81
2022/01/10 00:18:11;;;;;;;2.97;1.15;;;10.10;90.20;;;;;;4953216;28;20090;-80
2022/01/10 00:20:36;;;;;;;1.58;0.90;;;10.10;90.20;;;;;;4952673;28;20039;-81
2022/01/10 00:23:02;;;;;;;3.50;1.40;;;10.10;90.30;;;;;;4954796;28;20027;-81
2022/01/10 00:25:28;;;;;;;2.35;0.80;;;10.10;90.50;;;;;;4954936;28;20114;-81
2022/01/10 00:27:55;;;;;;;2.80;0.88;;;10.10;90.40;;;;;;4953345;28;20119;-80
2022/01/10 00:30:22;;;;;;;1.83;0.75;;;10.10;90.40;;;;;;4954005;28;20035;-82
2022/01/10 00:32:48;;;;;;;1.75;0.90;;;10.10;90.50;;;;;;4950636;28;20027;-81
2022/01/10 00:35:14;;;;;;;2.08;1.00;;;10.10;90.50;;;;;;4956833;28;20038;-81
2022/01/10 00:37:42;;;;;;;1.13;0.70;;;10.10;90.40;;;;;;4954654;28;20027;-81
2022/01/10 00:40:10;;;;;;;2.30;0.70;;;10.10;90.50;;;;;;4953456;28;20027;-81
2022/01/10 00:42:36;;;;;;;2.13;0.60;;;10.10;90.50;;;;;;4954795;28;20604;-81
2022/01/10 00:45:12;;;;;;;2.33;0.90;;;10.10;90.50;;;;;;4951243;28;20030;-81
2022/01/10 00:47:39;;;;;;;2.05;0.82;;;10.10;90.50;;;;;;4950825;28;20032;-81
2022/01/10 00:50:05;;;;;;;1.88;0.90;;;10.10;90.50;;;;;;4960397;28;20511;-81
2022/01/10 00:52:30;;;;;;;2.38;0.85;;;10.10;90.50;;;;;;4949711;28;20039;-82
2022/01/10 00:54:57;;;;;;;2.33;0.80;;;10.10;90.70;;;;;;4947179;28;20023;-81
2022/01/10 00:57:23;;;;;;;1.63;0.63;;;10.10;90.60;;;;;;4954282;28;20065;-80
2022/01/10 00:59:49;;;;;;;1.27;0.70;;;10.20;90.70;;;;;;4948929;28;20064;-81
2022/01/10 01:02:14;;;;;;;1.42;0.75;;;10.30;90.80;;;;;;4955188;28;20431;-81
2022/01/10 01:04:40;;;;;;;1.42;0.60;;;10.30;90.60;;;;;;4954517;28;20024;-81
2022/01/10 01:07:06;;;;;;;1.75;0.70;;;10.40;91.00;;;;;;4954398;28;20027;-82
2022/01/10 01:09:32;;;;;;;2.42;1.00;;;10.40;90.50;;;;;;4954132;28;20031;-81
2022/01/10 01:14:49;;;;;;;1.92;0.90;;;10.20;90.40;;;;;;4954675;28;20110;-81
2022/01/10 01:17:13;;;;;;;2.22;0.80;;;10.20;90.50;;;;;;4954860;28;20035;-81
2022/01/10 01:20:05;;;;;;;2.45;0.98;;;10.20;90.50;;;;;;4952857;28;20035;-81
2022/01/10 01:25:15;;;;;;;1.67;0.68;;;10.20;90.50;;;;;;4954235;28;20456;-81
2022/01/10 01:27:42;;;;;;;1.00;0.70;;;10.20;90.50;;;;;;4953591;28;20547;-81
2022/01/10 01:30:08;;;;;;;1.52;0.90;;;10.20;90.50;;;;;;4951467;28;20024;-81
2022/01/10 01:32:34;;;;;;;1.33;0.60;;;10.20;90.60;;;;;;4953299;28;20088;-81
2022/01/10 01:35:05;;;;;;;1.15;0.73;;;10.20;90.60;;;;;;4953611;28;20031;-81
2022/01/10 01:37:31;;;;;;;1.52;0.65;;;10.20;90.50;;;;;;4954128;28;20020;-81
2022/01/10 01:39:58;;;;;;;1.90;0.80;;;10.20;90.70;;;;;;4953933;28;20483;-81
2022/01/10 01:42:34;;;;;;;2.30;0.82;;;10.20;90.60;;;;;;4953348;28;20026;-81
2022/01/10 01:45:01;;;;;;;2.40;0.90;;;10.20;90.50;;;;;;4936150;28;20381;-81
2022/01/10 01:47:27;;;;;;;1.35;0.70;;;10.20;90.60;;;;;;4953643;28;20031;-81
2022/01/10 01:49:52;;;;;;;1.95;0.75;;;10.20;90.50;;;;;;4953120;28;20027;-81
2022/01/10 01:52:18;;;;;;;2.47;1.13;;;10.20;90.60;;;;;;4959849;28;20035;-81
2022/01/10 01:54:44;;;;;;;1.50;0.88;;;10.20;90.50;;;;;;4962321;28;20031;-81
2022/01/10 01:57:09;;;;;;;1.40;0.90;;;10.20;90.60;;;;;;4951245;28;20500;-82
2022/01/10 01:59:36;;;;;;;1.90;0.80;;;10.20;90.70;;;;;;4951773;28;20019;-81
2022/01/10 02:02:03;;;;;;;1.15;0.60;;;10.20;90.60;;;;;;4984614;28;20421;-81
2022/01/10 02:04:28;;;;;;;2.50;0.93;;;10.20;90.70;;;;;;4953383;28;20090;-80
2022/01/10 02:06:54;;;;;;;1.38;0.77;;;10.30;90.80;;;;;;4953761;28;20169;-80
2022/01/10 02:09:20;;;;;;;1.13;0.60;;;10.40;90.80;;;;;;4952644;28;20019;-81
2022/01/10 02:11:45;;;;;;;1.33;0.77;;;10.40;90.80;;;;;;4949386;28;20105;-80
2022/01/10 02:14:11;;;;;;;0.88;0.65;;;10.40;90.60;;;;;;4955334;28;20051;-80
2022/01/10 02:16:45;;;;;;;1.35;0.68;;;10.50;90.50;;;;;;4953833;28;20522;-80
2022/01/10 02:19:11;;;;;;;1.45;0.70;;;10.50;90.50;;;;;;4953594;28;20380;-80
2022/01/10 02:21:38;;;;;;;1.30;0.75;;;10.50;90.50;;;;;;4953298;28;20070;-80
2022/01/10 02:24:05;;;;;;;3.33;1.20;;;10.50;90.50;;;;;;4950767;28;20027;-80
2022/01/10 02:26:31;;;;;;;1.17;0.75;;;10.50;90.40;;;;;;4952175;28;20073;-81
2022/01/10 02:28:57;;;;;;;1.75;0.73;;;10.50;90.50;;;;;;4954701;28;20113;-81
2022/01/10 02:31:23;;;;;;;2.00;0.80;;;10.60;90.60;;;;;;4953346;28;20086;-81
2022/01/10 02:33:51;;;;;;;1.70;0.88;;;10.60;90.60;;;;;;4953158;28;20027;-81
2022/01/10 02:36:25;;;;;;;1.17;0.70;;;10.60;90.40;;;;;;4947191;28;20395;-80
2022/01/10 02:38:52;;;;;;;2.70;0.50;;;10.60;90.40;;;;;;4933920;28;20020;-80
2022/01/10 02:41:25;;;;;;;1.10;0.75;;;10.50;90.20;;;;;;4954962;28;20041;-80
2022/01/10 02:43:53;;;;;;;1.48;0.90;;;10.40;90.10;;;;;;4952663;28;20095;-80
2022/01/10 02:46:19;;;;;;;1.08;0.60;;;10.40;90.50;;;;;;4953203;28;20023;-80
2022/01/10 02:48:45;;;;;;;1.52;0.80;;;10.50;90.80;;;;;;4952211;28;20030;-79
2022/01/10 02:51:11;;;;;;;1.65;0.98;;;10.50;90.50;;;;;;4951327;28;20050;-80
2022/01/10 02:53:36;;;;;;;1.50;0.80;;;10.50;90.30;;;;;;4951167;28;20106;-80
2022/01/10 02:56:02;;;;;;;1.77;1.10;;;10.40;90.50;;;;;;4952611;28;20040;-79
2022/01/10 02:58:28;;;;;;;1.08;0.70;;;10.40;90.40;;;;;;4953531;28;20023;-80
2022/01/10 03:00:54;;;;;;;1.05;0.73;;;10.40;90.50;;;;;;4956620;28;20034;-80
2022/01/10 03:03:19;;;;;;;2.50;1.27;;;10.40;90.70;;;;;;4955791;28;20023;-81
2022/01/10 03:05:45;;;;;;;2.05;1.50;;;10.30;90.40;;;;;;4953013;28;20054;-80
2022/01/10 03:08:10;;;;;;;1.58;1.13;;;10.30;90.50;;;;;;4958248;28;20028;-80
2022/01/10 03:10:36;;;;;;;2.40;1.25;;;10.20;90.50;;;;;;4954757;28;20054;-80
2022/01/10 03:13:02;;;;;;;2.10;1.17;;;10.10;90.60;;;;;;4956220;28;20093;-79
2022/01/10 03:15:29;;;;;;;2.60;1.20;;;10.20;90.70;;;;;;4956349;28;20030;-81
2022/01/10 03:17:55;;;;;;;1.77;1.10;;;10.20;90.70;;;;;;4952275;28;20121;-81
2022/01/10 03:20:23;;;;;;;1.67;0.82;;;10.20;90.80;;;;;;4957917;28;20063;-81
2022/01/10 03:22:49;;;;;;;2.20;1.23;;;10.20;90.90;;;;;;4956446;28;20020;-80
2022/01/10 03:25:15;;;;;;;1.63;0.73;;;10.30;91.50;;;;;;4955868;28;20400;-81
2022/01/10 03:27:41;;;;;;;1.85;0.80;;;10.40;90.90;;;;;;4956025;28;20023;-81
2022/01/10 03:30:07;;;;;;;1.58;1.13;;;10.40;90.80;;;;;;4952322;28;20023;-80
2022/01/10 03:32:33;;;;;;;1.77;1.00;;;10.40;90.70;;;;;;4954780;28;20118;-81
2022/01/10 03:34:58;;;;;;;1.23;0.90;;;10.40;90.70;;;;;;4956028;28;20043;-81
2022/01/10 03:37:25;;;;;;;1.23;0.93;;;10.40;90.60;;;;;;4955809;28;20070;-80
2022/01/10 03:39:51;;;;;;;2.35;1.05;;;10.50;90.80;;;;;;4955352;28;20034;-81
2022/01/10 03:42:17;;;;;;;1.42;1.02;;;10.40;90.50;;;;;;4954742;28;20073;-81
2022/01/10 03:44:42;;;;;;;1.63;0.90;;;10.30;90.40;;;;;;4952578;28;20071;-81
2022/01/10 03:47:10;;;;;;;1.60;1.00;;;10.40;90.80;;;;;;4957820;28;20042;-81
2022/01/10 03:49:36;;;;;;;1.13;0.80;;;10.30;90.70;;;;;;4954640;28;20026;-80
2022/01/10 03:52:02;;;;;;;1.10;0.80;;;10.40;90.60;;;;;;4954127;28;20127;-80
2022/01/10 03:54:28;;;;;;;1.83;0.93;;;10.30;90.70;;;;;;4946411;28;20068;-81
2022/01/10 03:56:53;;;;;;;1.20;0.80;;;10.30;90.60;;;;;;4965347;28;20035;-80
2022/01/10 03:59:20;;;;;;;1.10;0.80;;;10.30;91.20;;;;;;4957532;28;20027;-80
2022/01/10 04:01:46;;;;;;;1.20;0.80;;;10.30;90.70;;;;;;4954357;28;20027;-81
2022/01/10 04:04:12;;;;;;;2.15;1.00;;;10.20;90.60;;;;;;4955603;28;20172;-80
2022/01/10 04:06:37;;;;;;;1.48;0.90;;;10.20;90.90;;;;;;4955088;28;20038;-80
2022/01/10 04:09:04;;;;;;;1.10;0.98;;;10.10;90.60;;;;;;4951064;28;20027;-81
2022/01/10 04:11:30;;;;;;;1.70;1.05;;;10.20;90.90;;;;;;4954716;28;20066;-80
2022/01/10 04:13:55;;;;;;;1.17;1.00;;;10.20;91.00;;;;;;4987485;28;20027;-80
2022/01/10 04:16:21;;;;;;;1.50;1.00;;;10.20;90.90;;;;;;4955425;28;20031;-79
2022/01/10 04:18:47;;;;;;;1.42;0.95;;;10.20;90.90;;;;;;4955251;28;20174;-79
2022/01/10 04:21:13;;;;;;;1.73;1.10;;;10.20;91.00;;;;;;4953720;28;20033;-80
2022/01/10 04:23:38;;;;;;;2.00;1.10;;;10.20;91.00;;;;;;4952697;28;20034;-81
2022/01/10 04:26:04;;;;;;;1.40;0.77;;;10.20;91.10;;;;;;4957257;28;20042;-80
2022/01/10 04:28:30;;;;;;;1.52;1.00;;;10.20;91.00;;;;;;4955167;28;20508;-81
2022/01/10 04:30:56;;;;;;;1.60;0.98;;;10.20;90.90;;;;;;4955272;28;20122;-80
2022/01/10 04:33:27;;;;;;;1.38;1.00;;;10.10;90.80;;;;;;4954864;28;20014;-80
2022/01/10 04:35:53;;;;;;;2.25;1.30;;;10.00;90.90;;;;;;4947658;28;20477;-80
2022/01/10 04:38:19;;;;;;;1.17;0.88;;;10.00;91.20;;;;;;4956894;28;20081;-80
2022/01/10 04:40:44;;;;;;;1.50;0.90;;;10.10;91.20;;;;;;4965805;28;20019;-79
2022/01/10 04:43:10;;;;;;;1.17;0.80;;;10.10;91.10;;;;;;4959844;28;20089;-81
2022/01/10 04:45:36;;;;;;;2.03;1.10;;;10.20;91.10;;;;;;4954686;28;20030;-81
2022/01/10 04:48:02;;;;;;;1.13;0.77;;;10.10;91.00;;;;;;4951965;28;20047;-81
2022/01/10 04:52:56;;;;;;;1.60;1.10;;;10.10;91.30;;;;;;4956022;28;20039;-81
2022/01/10 04:55:21;;;;;;;1.42;0.98;;;10.10;91.00;;;;;;4953689;28;20077;-81
2022/01/10 04:57:47;;;;;;;2.00;0.93;;;10.10;91.00;;;;;;4954734;28;20100;-80
2022/01/10 05:00:15;;;;;;;1.33;0.98;;;10.10;91.20;;;;;;4953553;28;20026;-80
2022/01/10 05:02:43;;;;;;;1.60;1.00;;;10.10;91.20;;;;;;4951701;28;20172;-80
2022/01/10 05:05:09;;;;;;;2.03;1.10;;;10.10;91.10;;;;;;4956357;28;20035;-81
2022/01/10 05:07:35;;;;;;;1.30;0.88;;;10.10;90.90;;;;;;4955342;28;20039;-81
2022/01/10 05:10:01;;;;;;;1.65;0.90;;;10.00;91.00;;;;;;4954690;28;20058;-81
2022/01/10 05:12:28;;;;;;;2.05;1.00;;;10.00;91.30;;;;;;4954242;28;20492;-81
2022/01/10 05:14:54;;;;;;;1.38;0.70;;;10.00;91.30;;;;;;4949528;28;20034;-80
2022/01/10 05:17:22;;;;;;;1.80;0.80;;;10.00;91.40;;;;;;4956219;28;20023;-80
2022/01/10 05:19:48;;;;;;;2.17;0.90;;;10.10;91.20;;;;;;4953968;28;20529;-80
2022/01/10 05:22:13;;;;;;;2.13;0.82;;;10.10;91.20;;;;;;4953803;28;20107;-80
2022/01/10 05:24:39;;;;;;;1.83;0.77;;;10.00;91.10;;;;;;4954332;28;20065;-81
2022/01/10 05:27:05;;;;;;;0.80;0.57;;;9.90;91.20;;;;;;4951769;28;20097;-80
2022/01/10 05:29:31;;;;;;;1.33;0.80;;;9.90;91.30;;;;;;4953262;28;20024;-81
2022/01/10 05:31:56;;;;;;;1.00;0.70;;;10.00;91.40;;;;;;4955345;28;20035;-81
2022/01/10 05:34:23;;;;;;;1.15;0.77;;;10.00;91.40;;;;;;4948885;28;20027;-80
2022/01/10 05:36:48;;;;;;;0.95;0.50;;;10.00;91.40;;;;;;4949294;28;20023;-80
2022/01/10 05:39:14;;;;;;;1.27;0.70;;;10.10;91.50;;;;;;4952948;28;20027;-80
2022/01/10 05:41:40;;;;;;;1.08;0.75;;;10.10;91.30;;;;;;4951148;28;20416;-80
2022/01/10 05:44:06;;;;;;;1.40;0.90;;;10.10;91.40;;;;;;4948481;28;20023;-79
2022/01/10 05:46:34;;;;;;;1.45;0.85;;;10.00;91.20;;;;;;4950579;28;20027;-80
2022/01/10 05:49:02;;;;;;;1.13;0.70;;;10.00;91.40;;;;;;4952118;28;20019;-80
2022/01/10 05:51:32;;;;;;;2.83;0.90;;;10.10;91.40;;;;;;4953950;28;20042;-80
2022/01/10 05:53:59;;;;;;;1.38;0.90;;;10.00;91.30;;;;;;4949223;28;20019;-79
2022/01/10 05:56:25;;;;;;;1.55;0.90;;;10.00;91.40;;;;;;4954187;28;20031;-80
2022/01/10 05:58:51;;;;;;;1.30;1.00;;;10.00;91.40;;;;;;4953096;28;20018;-80
2022/01/10 06:01:16;;;;;;;1.60;1.10;;;10.00;91.40;;;;;;4953949;28;20039;-81
2022/01/10 06:03:42;;;;;;;1.15;0.90;;;10.00;91.30;;;;;;4953491;28;20035;-80
2022/01/10 06:06:07;;;;;;;1.30;0.98;;;9.90;91.30;;;;;;4951723;28;20038;-80
2022/01/10 06:08:34;;;;;;;1.30;0.90;;;10.00;91.50;;;;;;4951860;28;20456;-81
2022/01/10 06:10:59;;;;;;;1.50;1.13;;;10.00;91.50;;;;;;4954718;28;20054;-81
2022/01/10 06:13:25;;;;;;;1.40;0.98;;;10.00;91.60;;;;;;4953295;28;20495;-81
2022/01/10 06:15:51;;;;;;;1.42;0.95;;;10.00;91.60;;;;;;4949657;28;20069;-82
2022/01/10 06:18:17;;;;;;;1.63;1.00;;;10.00;91.50;;;;;;4947751;28;20020;-80
2022/01/10 06:20:43;;;;;;;1.45;1.08;;;10.00;91.50;;;;;;4951273;28;20027;-81
2022/01/10 06:23:11;;;;;;;1.25;1.00;;;10.00;91.50;;;;;;4952337;28;20160;-81
2022/01/10 06:25:38;;;;;;;1.35;1.10;;;10.00;91.40;;;;;;4947971;28;20027;-81
2022/01/10 06:28:04;;;;;;;1.60;1.00;;;10.00;91.40;;;;;;4947741;28;20019;-80
2022/01/10 06:30:30;;;;;;;1.38;1.00;;;9.90;91.50;;;;;;4945306;29;20023;-81
2022/01/10 06:32:56;;;;;;;2.08;0.90;;;10.00;91.60;;;;;;4950039;28;20542;-81
2022/01/10 06:35:22;;;;;;;1.23;0.90;;;10.00;91.70;;;;;;4953082;28;20031;-81
2022/01/10 06:37:47;;;;;;;1.45;1.05;;;10.00;91.60;;;;;;4956434;28;20036;-82
2022/01/10 06:40:13;;;;;;;1.45;0.95;;;10.00;91.50;;;;;;4952065;29;20034;-81
2022/01/10 06:42:40;;;;;;;1.67;1.10;;;10.00;91.40;;;;;;4950020;28;20027;-81
2022/01/10 06:45:06;;;;;;;1.05;0.90;;;10.00;91.50;;;;;;4952242;28;20030;-81
2022/01/10 06:47:32;;;;;;;1.00;0.90;;;10.00;91.60;;;;;;4951274;28;20020;-82
2022/01/10 06:49:58;;;;;;;2.38;0.88;;;10.00;91.50;;;;;;4957198;28;20042;-80
2022/01/10 06:52:23;;;;;;;1.33;1.17;;;10.00;91.50;;;;;;4956223;28;20043;-80
2022/01/10 06:54:49;;;;;;;1.35;1.02;;;10.00;91.60;;;;;;4956341;28;20032;-79
2022/01/10 06:57:15;;;;;;;1.98;1.20;;;10.10;91.80;;;;;;4955786;28;20080;-81
2022/01/10 06:59:40;;;;;;;1.48;0.90;;;10.10;91.50;;;;;;4952002;28;25374;-79
2022/01/10 07:02:06;;;;;;;1.42;1.10;;;10.00;91.50;;;;;;4957946;28;20097;-79
2022/01/10 07:04:32;;;;;;;1.10;1.00;;;10.00;91.50;;;;;;4956575;28;20114;-73
2022/01/10 07:06:58;;;;;;;1.35;0.80;;;10.10;91.60;;;;;;4956428;28;20035;-71
2022/01/10 07:09:24;;;;;;;1.30;0.98;;;10.20;91.60;;;;;;4956419;28;20027;-70
2022/01/10 07:11:49;;;;;;;1.00;0.80;;;10.30;91.50;;;;;;4952038;28;20482;-73
2022/01/10 07:14:16;;;;;;;1.70;1.27;;;10.30;91.40;;;;;;4958084;28;20076;-71
2022/01/10 07:16:43;;;;;;;1.33;1.10;;;10.30;91.00;;;;;;4955957;28;20519;-71
2022/01/10 07:19:10;;;;;;;2.17;1.30;;;10.30;91.20;;;;;;4956355;28;20026;-77
2022/01/10 07:21:38;;;;;;;1.77;1.23;;;10.30;91.10;;;;;;4954856;28;20076;-74
2022/01/10 07:24:05;;;;;;;1.67;1.48;;;10.20;91.10;;;;;;4947214;28;20518;-74
2022/01/10 07:26:32;;;;;;;1.77;1.30;;;10.10;91.20;;;;;;4955185;28;20034;-74
2022/01/10 07:28:58;;;;;;;1.58;1.48;;;10.10;91.20;;;;;;4955756;28;20019;-73
2022/01/10 07:31:24;;;;;;;3.10;1.38;;;10.10;91.40;;;;;;4955384;28;20074;-76
2022/01/10 07:33:50;;;;;;;2.10;1.40;;;10.10;91.30;;;;;;4955894;28;20507;-78
2022/01/10 07:36:15;;;;;;;2.25;1.10;;;10.00;91.30;;;;;;4954874;28;20064;-77
2022/01/10 07:38:41;;;;;;;1.15;1.05;;;10.00;91.30;;;;;;4952674;28;20039;-76
2022/01/10 07:41:08;;;;;;;1.50;1.20;;;10.00;91.40;;;;;;4957908;28;20497;-81
2022/01/10 07:43:35;;;;;;;1.70;1.30;;;10.00;91.40;;;;;;4954806;28;20691;-76
2022/01/10 07:46:02;;;;;;;2.05;1.10;;;9.90;91.40;;;;;;4951511;28;20088;-76
2022/01/10 07:48:30;;;;;;;2.15;1.40;;;10.00;91.80;;;;;;4953114;28;20028;-76
2022/01/10 07:50:56;;;;;;;1.77;1.02;;;9.90;91.50;;;;;;4950796;28;20081;-75
2022/01/10 07:53:22;;;;;;;2.03;1.60;;;9.90;91.50;;;;;;4951374;28;20085;-76
2022/01/10 07:55:48;;;;;;;2.42;1.48;;;10.00;91.60;;;;;;4953945;28;20038;-76
2022/01/10 07:58:14;;;;;;;2.35;1.45;;;10.00;91.50;;;;;;4949709;28;20521;-75
2022/01/10 08:00:40;;;;;;;1.98;1.50;;;10.00;91.60;;;;;;4948086;28;20039;-75
2022/01/10 08:03:06;;;;;;;1.75;1.42;;;10.00;91.60;;;;;;4949355;28;20059;-75
2022/01/10 08:05:31;;;;;;;2.33;1.55;;;10.10;91.70;;;;;;4951555;28;20027;-75
2022/01/10 08:07:58;;;;;;;3.13;2.55;;;10.00;91.70;;;;;;4954232;28;20098;-75
2022/01/10 08:10:23;;;;;;;4.97;2.90;;;10.00;91.60;;;;;;4953085;28;20046;-75
2022/01/10 08:12:49;;;;;;;2.92;2.10;;;10.10;91.70;;;;;;4953116;28;20507;-75
2022/01/10 08:15:14;;;;;;;3.20;2.08;;;10.20;91.70;;;;;;4950645;28;20034;-75
2022/01/10 08:17:41;;;;;;;2.70;2.05;;;10.10;91.50;;;;;;4953309;28;20035;-75
2022/01/10 08:20:07;;;;;;;2.50;2.17;;;10.10;91.40;;;;;;4954722;28;20464;-75
2022/01/10 08:22:33;;;;;;;2.85;2.25;;;10.10;91.60;;;;;;4952901;28;20107;-76
2022/01/10 08:24:59;;;;;;;2.65;2.22;;;10.10;91.40;;;;;;4946998;28;20111;-75
2022/01/10 08:27:24;;;;;;;2.95;2.10;;;10.00;91.50;;;;;;4952364;28;20034;-75
2022/01/10 08:29:50;;;;;;;3.95;2.38;;;10.00;91.60;;;;;;4951477;28;20098;-75
2022/01/10 08:32:17;;;;;;;3.00;2.20;;;10.00;91.50;;;;;;4951183;29;20047;-76
2022/01/10 08:34:42;;;;;;;3.85;2.30;;;10.00;91.60;;;;;;4951054;28;20508;-75
2022/01/10 08:37:09;;;;;;;3.50;1.90;;;10.00;91.50;;;;;;4948189;29;20035;-75
2022/01/10 08:39:35;;;;;;;2.75;2.22;;;10.00;91.70;;;;;;4946736;28;20062;-76
2022/01/10 08:42:01;;;;;;;3.38;2.53;;;10.10;91.60;;;;;;4936758;28;20050;-76
2022/01/10 08:44:27;;;;;;;2.58;2.13;;;10.10;91.60;;;;;;4950149;28;20484;-75
2022/01/10 08:46:53;;;;;;;2.78;2.03;;;10.10;91.70;;;;;;4952292;28;20039;-76
2022/01/10 08:49:19;;;;;;;3.13;2.17;;;10.10;91.60;;;;;;4950212;28;20019;-77
2022/01/10 08:51:46;;;;;;;4.22;2.58;;;10.10;91.70;;;;;;4930033;28;20047;-76
2022/01/10 08:54:12;;;;;;;3.78;2.10;;;10.10;91.60;;;;;;4922623;28;20492;-75
2022/01/10 08:56:38;;;;;;;2.50;2.08;;;10.10;91.60;;;;;;4924427;28;20027;-74
2022/01/10 08:59:05;;;;;;;2.88;1.90;;;10.10;91.60;;;;;;4937624;28;20037;-74
2022/01/10 09:01:31;;;;;;;2.67;1.98;;;10.10;91.60;;;;;;4927070;28;20121;-74
2022/01/10 09:03:57;;;;;;;2.80;1.88;;;10.10;91.80;;;;;;4907918;28;20024;-73
2022/01/10 09:06:23;;;;;;;4.00;2.00;;;10.10;91.60;;;;;;4929021;29;20046;-75
2022/01/10 09:08:49;;;;;;;2.83;1.60;;;10.20;91.50;;;;;;4937344;29;20031;-75
2022/01/10 09:11:15;;;;;;;3.20;1.65;;;10.20;91.90;;;;;;4936031;28;20043;-75
2022/01/10 09:13:41;;;;;;;2.58;1.55;;;10.20;91.60;;;;;;4942252;29;20051;-75
2022/01/10 09:16:08;;;;;;;2.92;1.70;;;10.10;91.60;;;;;;4941681;29;20051;-74
2022/01/10 09:18:34;;;;;;;2.58;1.73;;;10.10;91.70;;;;;;4935243;28;20038;-75
2022/01/10 09:21:00;;;;;;;1.65;1.23;;;10.10;91.70;;;;;;4946786;29;20032;-75
2022/01/10 09:23:26;;;;;;;3.05;1.60;;;10.20;91.80;;;;;;4934570;28;20509;-74
2022/01/10 09:25:52;;;;;;;2.05;1.40;;;10.20;91.80;;;;;;4934881;29;20038;-75
2022/01/10 09:28:19;;;;;;;1.77;1.20;;;10.20;91.90;;;;;;4940173;28;20077;-75
2022/01/10 09:30:46;;;;;;;1.80;1.27;;;10.20;91.70;;;;;;4944692;29;20071;-75
2022/01/10 09:33:11;;;;;;;1.75;1.05;;;10.20;91.70;;;;;;4948698;28;20050;-74
2022/01/10 09:35:37;;;;;;;1.90;1.30;;;10.20;91.80;;;;;;4950249;28;20477;-75
2022/01/10 09:38:03;;;;;;;2.45;1.30;;;10.20;91.90;;;;;;4936445;28;20035;-75
2022/01/10 09:40:29;;;;;;;2.35;1.05;;;10.20;91.70;;;;;;4939970;28;20106;-76
2022/01/10 09:42:55;;;;;;;1.83;1.23;;;10.10;91.60;;;;;;4946372;28;20115;-75
2022/01/10 09:45:21;;;;;;;2.20;1.35;;;10.20;91.90;;;;;;4948422;28;20496;-76
2022/01/10 09:47:47;;;;;;;1.95;1.30;;;10.20;92.00;;;;;;4948150;29;20082;-76
2022/01/10 09:50:16;;;;;;;3.88;1.60;;;10.20;91.90;;;;;;4936430;29;20046;-76
2022/01/10 09:52:44;;;;;;;2.85;1.65;;;10.20;92.00;;;;;;4937230;29;20046;-76
2022/01/10 09:55:10;;;;;;;3.15;1.75;;;10.20;92.00;;;;;;4936836;28;20511;-76
2022/01/10 09:57:36;;;;;;;2.53;1.95;;;10.20;91.90;;;;;;4935271;29;20028;-77
2022/01/10 10:00:04;;;;;;;2.67;1.73;;;10.10;92.10;;;;;;4940510;29;20481;-77
2022/01/10 10:02:35;;;;;;;2.10;1.60;;;10.10;92.50;;;;;;4945311;29;20023;-76
2022/01/10 10:05:06;;;;;;;3.75;2.00;;;10.10;92.10;;;;;;4946663;29;20031;-77
2022/01/10 10:07:32;;;;;;;2.78;1.92;;;10.10;92.10;;;;;;4949126;29;20110;-76
2022/01/10 10:10:03;;;;;;;2.70;1.90;;;10.10;92.10;;;;;;4943358;29;20497;-78
2022/01/10 10:12:30;;;;;;;4.00;2.40;;;10.10;92.30;;;;;;4938250;29;20043;-77
2022/01/10 10:14:56;;;;;;;5.10;3.30;;;10.20;92.50;;;;;;4948958;28;20024;-76
2022/01/10 10:17:22;;;;;;;4.95;3.60;;;10.20;92.20;;;;;;4968950;28;20028;-76
2022/01/10 10:19:49;;;;;;;6.15;3.60;;;10.20;92.20;;;;;;4953260;28;20399;-75
2022/01/10 10:22:16;;;;;;;4.97;3.22;;;10.30;92.30;;;;;;4966912;28;20100;-76
2022/01/10 10:24:46;;;;;;;5.20;3.65;;;10.30;92.30;;;;;;4945775;28;20035;-77
2022/01/10 10:27:15;;;;;;;4.68;3.15;;;10.40;92.30;;;;;;4937933;28;20050;-76
2022/01/10 10:29:41;;;;;;;4.85;3.30;;;10.40;92.10;;;;;;4942866;28;20419;-76
2022/01/10 10:32:09;;;;;;;3.97;3.17;;;10.30;92.10;;;;;;4956702;28;20034;-76
2022/01/10 10:34:35;;;;;;;4.00;2.58;;;10.40;92.20;;;;;;4942236;28;20077;-76
2022/01/10 10:37:02;;;;;;;5.30;3.00;;;10.40;92.30;;;;;;4952554;28;20066;-76
2022/01/10 10:39:33;;;;;;;4.25;2.47;;;10.50;92.40;;;;;;4968193;28;20023;-76
2022/01/10 10:42:02;;;;;;;4.40;2.60;;;10.50;92.30;;;;;;4939126;28;20123;-76
2022/01/10 10:44:28;;;;;;;3.28;2.30;;;10.50;92.10;;;;;;4947917;28;20035;-76
2022/01/10 10:46:54;;;;;;;3.85;2.10;;;10.50;92.20;;;;;;4989976;28;20112;-76
2022/01/10 10:49:22;;;;;;;4.50;2.22;;;10.50;92.20;;;;;;4955125;28;20100;-76
2022/01/10 10:51:50;;;;;;;3.33;2.05;;;10.50;92.10;;;;;;4944783;28;20105;-77
2022/01/10 10:54:17;;;;;;;3.47;2.00;;;10.60;92.30;;;;;;4939797;28;20051;-76
2022/01/10 10:56:44;;;;;;;2.40;1.83;;;10.60;92.30;;;;;;4952044;28;20103;-77
2022/01/10 10:59:11;;;;;;;2.47;1.77;;;10.60;92.30;;;;;;4950403;28;20115;-76
2022/01/10 11:01:39;;;;;;;3.28;1.90;;;10.70;92.20;;;;;;5000806;28;20080;-76
2022/01/10 11:04:06;;;;;;;2.50;1.70;;;10.80;92.40;;;;;;4973587;28;20023;-75
2022/01/10 11:06:33;;;;;;;2.17;1.30;;;10.90;92.40;;;;;;4947530;28;20028;-75
2022/01/10 11:09:09;;;;;;;1.52;1.15;;;10.90;92.10;;;;;;4964980;28;20031;-76
2022/01/10 11:11:35;;;;;;;1.95;1.17;;;10.90;92.20;;;;;;5023096;28;20042;-75
2022/01/10 11:14:01;;;;;;;2.83;1.15;;;11.00;92.00;;;;;;4951960;28;20031;-75
2022/01/10 11:16:28;;;;;;;1.50;1.20;;;10.80;91.60;;;;;;4948711;28;20061;-78
2022/01/10 11:18:55;;;;;;;2.22;1.30;;;10.80;91.90;;;;;;4941288;28;20026;-76
2022/01/10 11:21:23;;;;;;;1.17;0.82;;;10.90;92.00;;;;;;4957805;28;20438;-69
2022/01/10 11:23:50;;;;;;;1.50;1.10;;;10.90;92.00;;;;;;5013941;28;20062;-72
2022/01/10 11:26:17;;;;;;;1.50;1.15;;;11.00;92.00;;;;;;4953227;28;20062;-73
2022/01/10 11:28:54;;;;;;;2.03;0.90;;;11.00;92.10;;;;;;4946561;28;20189;-73
2022/01/10 11:31:22;;;;;;;1.50;0.95;;;11.00;91.90;;;;;;4938619;29;20078;-72
2022/01/10 11:33:49;;;;;;;1.00;0.80;;;11.10;92.00;;;;;;4938774;28;20016;-73
2022/01/10 11:36:18;;;;;;;1.85;0.75;;;11.20;91.90;;;;;;4946202;28;20081;-73
2022/01/10 11:38:52;;;;;;;1.13;0.88;;;11.10;91.90;;;;;;4946579;28;20066;-72
2022/01/10 11:41:20;;;;;;;1.63;0.68;;;11.20;91.80;;;;;;4948919;28;20062;-72
2022/01/10 11:43:57;;;;;;;1.33;0.70;;;11.20;91.70;;;;;;4950659;29;20439;-72
2022/01/10 11:46:37;;;;;;;1.05;0.73;;;11.20;91.80;;;;;;4948588;28;20096;-71
2022/01/10 11:49:09;;;;;;;2.22;0.60;;;11.20;91.50;;;;;;4943999;28;20396;-72
2022/01/10 11:51:37;;;;;;;1.20;0.68;;;11.20;91.50;;;;;;4936171;29;20044;-73
2022/01/10 11:54:13;;;;;;;0.85;0.70;;;11.20;91.70;;;;;;4949157;29;20019;-72
2022/01/10 11:56:45;;;;;;;1.60;0.70;;;11.20;91.90;;;;;;4935113;29;20054;-72
2022/01/10 11:59:20;;;;;;;2.45;1.02;;;11.30;91.70;;;;;;4934301;29;20596;-81
2022/01/10 12:01:59;;;;;;;1.30;0.80;;;11.40;91.80;;;;;;4937490;28;20527;-72
2022/01/10 12:04:39;;;;;;;1.45;0.93;;;11.40;91.60;;;;;;4945647;28;20034;-73
2022/01/10 12:07:11;;;;;;;1.40;0.65;;;11.40;91.80;;;;;;4944321;29;20486;-77
2022/01/10 12:09:38;;;;;;;1.00;0.80;;;11.40;91.70;;;;;;4946117;28;20089;-74
2022/01/10 12:12:06;;;;;;;1.00;0.88;;;11.40;91.60;;;;;;4944377;28;20075;-73
2022/01/10 12:14:31;;;;;;;1.27;0.80;;;11.50;91.70;;;;;;4949779;28;20020;-73
2022/01/10 12:16:59;;;;;;;1.67;0.88;;;11.50;91.60;;;;;;4949996;29;20400;-72
2022/01/10 12:19:25;;;;;;;1.33;0.70;;;11.50;91.60;;;;;;4940833;28;20070;-77
2022/01/10 12:21:51;;;;;;;1.00;0.70;;;11.50;91.30;;;;;;4941856;28;20054;-78
2022/01/10 12:24:18;;;;;;;0.98;0.60;;;11.40;91.40;;;;;;4949623;28;20512;-77
2022/01/10 12:26:44;;;;;;;1.38;0.60;;;11.40;91.30;;;;;;4948747;28;20040;-76
2022/01/10 12:29:11;;;;;;;0.73;0.55;;;11.40;91.50;;;;;;4949773;28;20027;-76
2022/01/10 12:31:39;;;;;;;2.65;0.60;;;11.40;91.40;;;;;;4978705;28;20474;-76
2022/01/10 12:34:08;;;;;;;0.90;0.60;;;11.40;91.50;;;;;;4949525;28;20038;-76
2022/01/10 12:36:35;;;;;;;0.77;0.50;;;11.40;91.30;;;;;;4949506;28;20488;-79
2022/01/10 12:39:05;;;;;;;1.40;0.88;;;11.40;91.40;;;;;;4949831;29;20027;-79
2022/01/10 12:41:32;;;;;;;1.02;0.60;;;11.40;91.40;;;;;;4948558;29;20024;-78
2022/01/10 12:43:58;;;;;;;1.45;0.90;;;11.50;91.50;;;;;;4951157;28;20039;-80
2022/01/10 12:46:24;;;;;;;1.05;0.80;;;11.50;91.50;;;;;;4950061;28;20038;-80
2022/01/10 12:48:51;;;;;;;1.70;1.10;;;11.50;91.40;;;;;;4942257;28;20027;-79
2022/01/10 12:51:19;;;;;;;1.50;0.80;;;11.40;91.30;;;;;;4996892;28;20039;-75
2022/01/10 12:53:48;;;;;;;2.53;0.90;;;11.40;91.50;;;;;;4949149;28;20035;-78